Terminal Aerodrome Forecast
Issued by NWS

Home | Current Version | Previous Version | Text Only | Print | Product List | Glossary On
Versions: 1 2 3 4 5 6 7 8 9 10 11 12 13 14
726
FTUS46 KPDT 071720
TAFPSC
TAF
KPSC 071720Z 0718/0818 34003KT P6SM FEW120 BKN200
     FM081200 33003KT 3SM BR SCT008
     FM081500 33004KT 5SM BR SCT008=

USA.gov is the U.S. government's official web portal to all federal, state and local government web resources and services.